sensor_id;sensor_type;location;lat;lon;timestamp;P1;durP1;ratioP1;P2;durP2;ratioP2
69334;SDS011;56477;52.742;15.242;2023-11-21T00:00:37;41.60;;;14.05;;
69334;SDS011;56477;52.742;15.242;2023-11-21T00:03:23;34.50;;;13.10;;
69334;SDS011;56477;52.742;15.242;2023-11-21T00:05:49;38.83;;;13.90;;
69334;SDS011;56477;52.742;15.242;2023-11-21T00:08:15;42.03;;;12.85;;
69334;SDS011;56477;52.742;15.242;2023-11-21T00:10:42;32.33;;;12.07;;
69334;SDS011;56477;52.742;15.242;2023-11-21T00:13:08;38.03;;;13.73;;
69334;SDS011;56477;52.742;15.242;2023-11-21T00:15:34;42.25;;;13.23;;
69334;SDS011;56477;52.742;15.242;2023-11-21T00:18:00;38.90;;;13.40;;
69334;SDS011;56477;52.742;15.242;2023-11-21T00:20:27;40.83;;;14.90;;
69334;SDS011;56477;52.742;15.242;2023-11-21T00:22:52;41.63;;;13.02;;
69334;SDS011;56477;52.742;15.242;2023-11-21T00:25:19;47.67;;;14.57;;
69334;SDS011;56477;52.742;15.242;2023-11-21T00:27:45;48.95;;;14.40;;
69334;SDS011;56477;52.742;15.242;2023-11-21T00:30:11;45.65;;;13.95;;
69334;SDS011;56477;52.742;15.242;2023-11-21T00:32:38;53.28;;;14.27;;
69334;SDS011;56477;52.742;15.242;2023-11-21T00:35:04;47.85;;;13.90;;
69334;SDS011;56477;52.742;15.242;2023-11-21T00:37:31;43.07;;;14.00;;
69334;SDS011;56477;52.742;15.242;2023-11-21T00:39:58;49.03;;;13.73;;
69334;SDS011;56477;52.742;15.242;2023-11-21T00:42:23;46.65;;;13.65;;
69334;SDS011;56477;52.742;15.242;2023-11-21T00:44:50;50.28;;;12.77;;
69334;SDS011;56477;52.742;15.242;2023-11-21T00:47:16;40.10;;;14.05;;
69334;SDS011;56477;52.742;15.242;2023-11-21T00:49:42;42.70;;;13.80;;
69334;SDS011;56477;52.742;15.242;2023-11-21T00:52:08;54.80;;;14.35;;
69334;SDS011;56477;52.742;15.242;2023-11-21T00:54:34;55.72;;;13.90;;
69334;SDS011;56477;52.742;15.242;2023-11-21T00:57:01;39.08;;;12.18;;
69334;SDS011;56477;52.742;15.242;2023-11-21T00:59:27;44.13;;;13.15;;
69334;SDS011;56477;52.742;15.242;2023-11-21T01:01:53;47.47;;;13.70;;
69334;SDS011;56477;52.742;15.242;2023-11-21T01:04:20;44.00;;;12.95;;
69334;SDS011;56477;52.742;15.242;2023-11-21T01:06:46;46.80;;;12.63;;
69334;SDS011;56477;52.742;15.242;2023-11-21T01:09:12;44.85;;;12.80;;
69334;SDS011;56477;52.742;15.242;2023-11-21T01:11:38;46.08;;;12.05;;
69334;SDS011;56477;52.742;15.242;2023-11-21T01:14:04;41.57;;;12.43;;
69334;SDS011;56477;52.742;15.242;2023-11-21T01:16:31;40.22;;;12.23;;
69334;SDS011;56477;52.742;15.242;2023-11-21T01:19:00;49.28;;;11.93;;
69334;SDS011;56477;52.742;15.242;2023-11-21T01:21:27;57.22;;;12.10;;
69334;SDS011;56477;52.742;15.242;2023-11-21T01:23:53;41.70;;;12.38;;
69334;SDS011;56477;52.742;15.242;2023-11-21T01:26:20;48.47;;;11.57;;
69334;SDS011;56477;52.742;15.242;2023-11-21T01:28:47;34.65;;;10.75;;
69334;SDS011;56477;52.742;15.242;2023-11-21T01:31:17;41.67;;;11.50;;
69334;SDS011;56477;52.742;15.242;2023-11-21T01:33:43;51.72;;;11.23;;
69334;SDS011;56477;52.742;15.242;2023-11-21T01:36:09;42.50;;;11.17;;
69334;SDS011;56477;52.742;15.242;2023-11-21T01:38:36;35.83;;;11.00;;
69334;SDS011;56477;52.742;15.242;2023-11-21T01:41:02;45.97;;;11.20;;
69334;SDS011;56477;52.742;15.242;2023-11-21T01:43:28;53.80;;;11.68;;
69334;SDS011;56477;52.742;15.242;2023-11-21T01:45:57;32.77;;;10.83;;
69334;SDS011;56477;52.742;15.242;2023-11-21T01:48:23;38.38;;;11.02;;
69334;SDS011;56477;52.742;15.242;2023-11-21T01:50:50;43.50;;;10.95;;
69334;SDS011;56477;52.742;15.242;2023-11-21T01:53:16;36.08;;;10.40;;
69334;SDS011;56477;52.742;15.242;2023-11-21T01:55:43;36.08;;;10.38;;
69334;SDS011;56477;52.742;15.242;2023-11-21T01:58:11;38.40;;;11.20;;
69334;SDS011;56477;52.742;15.242;2023-11-21T02:00:40;30.33;;;10.45;;
69334;SDS011;56477;52.742;15.242;2023-11-21T02:03:07;36.28;;;10.30;;
69334;SDS011;56477;52.742;15.242;2023-11-21T02:05:33;23.20;;;7.82;;
69334;SDS011;56477;52.742;15.242;2023-11-21T02:07:59;27.10;;;8.77;;
69334;SDS011;56477;52.742;15.242;2023-11-21T02:10:26;21.23;;;7.20;;
69334;SDS011;56477;52.742;15.242;2023-11-21T02:12:52;22.88;;;8.05;;
69334;SDS011;56477;52.742;15.242;2023-11-21T02:15:18;21.38;;;7.72;;
69334;SDS011;56477;52.742;15.242;2023-11-21T02:17:49;27.25;;;9.30;;
69334;SDS011;56477;52.742;15.242;2023-11-21T02:20:17;22.40;;;8.02;;
69334;SDS011;56477;52.742;15.242;2023-11-21T02:22:53;24.50;;;8.03;;
69334;SDS011;56477;52.742;15.242;2023-11-21T02:25:24;20.27;;;7.20;;
69334;SDS011;56477;52.742;15.242;2023-11-21T02:27:52;24.60;;;8.90;;
69334;SDS011;56477;52.742;15.242;2023-11-21T02:30:20;29.35;;;8.50;;
69334;SDS011;56477;52.742;15.242;2023-11-21T02:32:47;26.67;;;8.13;;
69334;SDS011;56477;52.742;15.242;2023-11-21T02:35:14;26.73;;;7.53;;
69334;SDS011;56477;52.742;15.242;2023-11-21T02:37:42;19.35;;;7.65;;
69334;SDS011;56477;52.742;15.242;2023-11-21T02:40:08;23.77;;;7.68;;
69334;SDS011;56477;52.742;15.242;2023-11-21T02:42:36;23.65;;;7.95;;
69334;SDS011;56477;52.742;15.242;2023-11-21T02:45:01;21.50;;;7.87;;
69334;SDS011;56477;52.742;15.242;2023-11-21T02:47:28;25.02;;;8.65;;
69334;SDS011;56477;52.742;15.242;2023-11-21T02:49:54;22.42;;;8.20;;
69334;SDS011;56477;52.742;15.242;2023-11-21T02:52:20;24.02;;;7.95;;
69334;SDS011;56477;52.742;15.242;2023-11-21T02:54:46;23.60;;;8.25;;
69334;SDS011;56477;52.742;15.242;2023-11-21T02:57:12;25.90;;;8.97;;
69334;SDS011;56477;52.742;15.242;2023-11-21T02:59:38;21.17;;;7.70;;
69334;SDS011;56477;52.742;15.242;2023-11-21T03:02:05;27.60;;;9.23;;
69334;SDS011;56477;52.742;15.242;2023-11-21T03:04:34;24.08;;;8.60;;
69334;SDS011;56477;52.742;15.242;2023-11-21T03:07:00;27.67;;;8.38;;
69334;SDS011;56477;52.742;15.242;2023-11-21T03:09:26;28.20;;;8.00;;
69334;SDS011;56477;52.742;15.242;2023-11-21T03:11:53;21.25;;;6.95;;
69334;SDS011;56477;52.742;15.242;2023-11-21T03:14:19;25.38;;;7.97;;
69334;SDS011;56477;52.742;15.242;2023-11-21T03:16:45;24.60;;;7.57;;
69334;SDS011;56477;52.742;15.242;2023-11-21T03:19:13;23.67;;;8.03;;
69334;SDS011;56477;52.742;15.242;2023-11-21T03:21:40;22.67;;;7.18;;
69334;SDS011;56477;52.742;15.242;2023-11-21T03:24:06;22.10;;;7.47;;
69334;SDS011;56477;52.742;15.242;2023-11-21T03:26:32;22.23;;;7.88;;
69334;SDS011;56477;52.742;15.242;2023-11-21T03:28:59;24.55;;;7.53;;
69334;SDS011;56477;52.742;15.242;2023-11-21T03:31:25;23.83;;;7.87;;
69334;SDS011;56477;52.742;15.242;2023-11-21T03:33:52;21.23;;;6.78;;
69334;SDS011;56477;52.742;15.242;2023-11-21T03:36:19;20.30;;;7.25;;
69334;SDS011;56477;52.742;15.242;2023-11-21T03:38:48;19.55;;;7.50;;
69334;SDS011;56477;52.742;15.242;2023-11-21T03:41:17;20.35;;;7.43;;
69334;SDS011;56477;52.742;15.242;2023-11-21T03:43:43;20.03;;;7.07;;
69334;SDS011;56477;52.742;15.242;2023-11-21T03:46:09;18.67;;;6.95;;
69334;SDS011;56477;52.742;15.242;2023-11-21T03:48:35;21.48;;;7.70;;
69334;SDS011;56477;52.742;15.242;2023-11-21T03:51:01;19.50;;;6.78;;
69334;SDS011;56477;52.742;15.242;2023-11-21T03:53:27;21.40;;;7.30;;
69334;SDS011;56477;52.742;15.242;2023-11-21T03:55:53;22.85;;;7.25;;
69334;SDS011;56477;52.742;15.242;2023-11-21T03:58:20;21.13;;;6.43;;
69334;SDS011;56477;52.742;15.242;2023-11-21T04:00:46;18.50;;;7.43;;
69334;SDS011;56477;52.742;15.242;2023-11-21T04:03:14;18.52;;;6.75;;
69334;SDS011;56477;52.742;15.242;2023-11-21T04:05:41;26.85;;;7.63;;
69334;SDS011;56477;52.742;15.242;2023-11-21T04:08:07;21.00;;;7.40;;
69334;SDS011;56477;52.742;15.242;2023-11-21T04:10:33;21.30;;;7.93;;
69334;SDS011;56477;52.742;15.242;2023-11-21T04:12:59;24.20;;;8.00;;
69334;SDS011;56477;52.742;15.242;2023-11-21T04:15:25;24.40;;;7.53;;
69334;SDS011;56477;52.742;15.242;2023-11-21T04:17:52;27.83;;;8.38;;
69334;SDS011;56477;52.742;15.242;2023-11-21T04:20:18;28.17;;;8.25;;
69334;SDS011;56477;52.742;15.242;2023-11-21T04:22:44;30.67;;;8.93;;
69334;SDS011;56477;52.742;15.242;2023-11-21T04:25:10;27.77;;;8.50;;
69334;SDS011;56477;52.742;15.242;2023-11-21T04:27:41;23.95;;;7.93;;
69334;SDS011;56477;52.742;15.242;2023-11-21T04:30:10;23.58;;;7.93;;
69334;SDS011;56477;52.742;15.242;2023-11-21T04:32:37;28.33;;;7.80;;
69334;SDS011;56477;52.742;15.242;2023-11-21T04:35:04;27.63;;;7.67;;
69334;SDS011;56477;52.742;15.242;2023-11-21T04:37:31;24.83;;;7.70;;
69334;SDS011;56477;52.742;15.242;2023-11-21T04:39:57;24.25;;;8.65;;
69334;SDS011;56477;52.742;15.242;2023-11-21T04:42:23;27.70;;;8.00;;
69334;SDS011;56477;52.742;15.242;2023-11-21T04:44:49;26.60;;;7.93;;
69334;SDS011;56477;52.742;15.242;2023-11-21T04:47:15;25.00;;;8.18;;
69334;SDS011;56477;52.742;15.242;2023-11-21T04:49:42;24.63;;;7.93;;
69334;SDS011;56477;52.742;15.242;2023-11-21T04:52:09;26.20;;;8.10;;
69334;SDS011;56477;52.742;15.242;2023-11-21T04:54:35;21.42;;;7.70;;
69334;SDS011;56477;52.742;15.242;2023-11-21T04:57:01;20.70;;;6.90;;
69334;SDS011;56477;52.742;15.242;2023-11-21T04:59:27;20.08;;;6.05;;
69334;SDS011;56477;52.742;15.242;2023-11-21T05:01:53;17.60;;;5.85;;
69334;SDS011;56477;52.742;15.242;2023-11-21T05:04:20;19.42;;;6.68;;
69334;SDS011;56477;52.742;15.242;2023-11-21T05:06:48;19.33;;;6.13;;
69334;SDS011;56477;52.742;15.242;2023-11-21T05:09:14;17.63;;;5.65;;
69334;SDS011;56477;52.742;15.242;2023-11-21T05:11:41;16.05;;;5.07;;
69334;SDS011;56477;52.742;15.242;2023-11-21T05:14:07;19.67;;;6.45;;
69334;SDS011;56477;52.742;15.242;2023-11-21T05:16:34;22.88;;;6.30;;
69334;SDS011;56477;52.742;15.242;2023-11-21T05:19:00;14.67;;;5.20;;
69334;SDS011;56477;52.742;15.242;2023-11-21T05:21:27;17.98;;;6.30;;
69334;SDS011;56477;52.742;15.242;2023-11-21T05:23:55;23.42;;;6.97;;
69334;SDS011;56477;52.742;15.242;2023-11-21T05:26:21;21.27;;;7.10;;
69334;SDS011;56477;52.742;15.242;2023-11-21T05:28:47;16.10;;;5.50;;
69334;SDS011;56477;52.742;15.242;2023-11-21T05:31:13;18.88;;;6.47;;
69334;SDS011;56477;52.742;15.242;2023-11-21T05:33:40;21.20;;;7.20;;
69334;SDS011;56477;52.742;15.242;2023-11-21T05:36:07;21.17;;;7.05;;
69334;SDS011;56477;52.742;15.242;2023-11-21T05:38:35;20.67;;;7.72;;
69334;SDS011;56477;52.742;15.242;2023-11-21T05:41:02;17.57;;;6.10;;
69334;SDS011;56477;52.742;15.242;2023-11-21T05:43:29;22.42;;;8.00;;
69334;SDS011;56477;52.742;15.242;2023-11-21T05:45:56;21.92;;;7.60;;
69334;SDS011;56477;52.742;15.242;2023-11-21T05:48:22;22.25;;;6.93;;
69334;SDS011;56477;52.742;15.242;2023-11-21T05:50:49;20.20;;;7.70;;
69334;SDS011;56477;52.742;15.242;2023-11-21T05:53:15;21.67;;;7.07;;
69334;SDS011;56477;52.742;15.242;2023-11-21T05:55:42;20.90;;;6.63;;
69334;SDS011;56477;52.742;15.242;2023-11-21T05:58:08;21.52;;;7.05;;
69334;SDS011;56477;52.742;15.242;2023-11-21T06:00:34;20.30;;;7.75;;
69334;SDS011;56477;52.742;15.242;2023-11-21T06:03:01;19.77;;;6.83;;
69334;SDS011;56477;52.742;15.242;2023-11-21T06:05:28;16.48;;;6.28;;
69334;SDS011;56477;52.742;15.242;2023-11-21T06:07:56;17.85;;;7.00;;
69334;SDS011;56477;52.742;15.242;2023-11-21T06:10:24;17.80;;;6.68;;
69334;SDS011;56477;52.742;15.242;2023-11-21T06:12:51;17.38;;;6.45;;
69334;SDS011;56477;52.742;15.242;2023-11-21T06:15:17;17.67;;;5.50;;
69334;SDS011;56477;52.742;15.242;2023-11-21T06:17:45;17.48;;;5.95;;
69334;SDS011;56477;52.742;15.242;2023-11-21T06:20:15;11.05;;;4.10;;
69334;SDS011;56477;52.742;15.242;2023-11-21T06:22:50;13.88;;;4.57;;
69334;SDS011;56477;52.742;15.242;2023-11-21T06:25:16;14.82;;;5.43;;
69334;SDS011;56477;52.742;15.242;2023-11-21T06:27:43;17.03;;;5.20;;
69334;SDS011;56477;52.742;15.242;2023-11-21T06:30:11;17.38;;;5.50;;
69334;SDS011;56477;52.742;15.242;2023-11-21T06:32:39;15.73;;;5.88;;
69334;SDS011;56477;52.742;15.242;2023-11-21T06:35:06;12.95;;;5.00;;
69334;SDS011;56477;52.742;15.242;2023-11-21T06:37:33;15.68;;;5.10;;
69334;SDS011;56477;52.742;15.242;2023-11-21T06:40:00;16.27;;;5.77;;
69334;SDS011;56477;52.742;15.242;2023-11-21T06:42:26;17.80;;;5.80;;
69334;SDS011;56477;52.742;15.242;2023-11-21T06:44:53;18.40;;;6.00;;
69334;SDS011;56477;52.742;15.242;2023-11-21T06:47:22;12.70;;;4.85;;
69334;SDS011;56477;52.742;15.242;2023-11-21T06:49:52;14.15;;;5.45;;
69334;SDS011;56477;52.742;15.242;2023-11-21T06:52:18;13.23;;;4.30;;
69334;SDS011;56477;52.742;15.242;2023-11-21T06:54:45;13.57;;;4.68;;
69334;SDS011;56477;52.742;15.242;2023-11-21T06:57:13;13.20;;;5.05;;
69334;SDS011;56477;52.742;15.242;2023-11-21T06:59:39;15.55;;;5.13;;
69334;SDS011;56477;52.742;15.242;2023-11-21T07:02:05;13.30;;;5.40;;
69334;SDS011;56477;52.742;15.242;2023-11-21T07:04:35;12.27;;;4.90;;
69334;SDS011;56477;52.742;15.242;2023-11-21T07:07:02;15.82;;;5.57;;
69334;SDS011;56477;52.742;15.242;2023-11-21T07:09:29;14.73;;;5.30;;
69334;SDS011;56477;52.742;15.242;2023-11-21T07:11:56;14.02;;;3.97;;
69334;SDS011;56477;52.742;15.242;2023-11-21T07:14:22;13.50;;;5.50;;
69334;SDS011;56477;52.742;15.242;2023-11-21T07:16:48;17.63;;;6.20;;
69334;SDS011;56477;52.742;15.242;2023-11-21T07:19:15;14.98;;;5.57;;
69334;SDS011;56477;52.742;15.242;2023-11-21T07:21:40;12.27;;;5.10;;
69334;SDS011;56477;52.742;15.242;2023-11-21T07:24:07;11.13;;;5.27;;
69334;SDS011;56477;52.742;15.242;2023-11-21T07:26:34;13.63;;;4.60;;
69334;SDS011;56477;52.742;15.242;2023-11-21T07:29:02;14.68;;;5.43;;
69334;SDS011;56477;52.742;15.242;2023-11-21T07:31:28;10.93;;;4.75;;
69334;SDS011;56477;52.742;15.242;2023-11-21T07:33:55;11.38;;;4.55;;
69334;SDS011;56477;52.742;15.242;2023-11-21T07:36:24;12.50;;;4.50;;
69334;SDS011;56477;52.742;15.242;2023-11-21T07:38:50;11.32;;;3.67;;
69334;SDS011;56477;52.742;15.242;2023-11-21T07:41:19;14.70;;;5.53;;
69334;SDS011;56477;52.742;15.242;2023-11-21T07:43:46;12.52;;;4.47;;
69334;SDS011;56477;52.742;15.242;2023-11-21T07:46:12;9.27;;;4.25;;
69334;SDS011;56477;52.742;15.242;2023-11-21T07:48:40;12.03;;;4.53;;
69334;SDS011;56477;52.742;15.242;2023-11-21T07:51:07;10.65;;;4.50;;
69334;SDS011;56477;52.742;15.242;2023-11-21T07:53:34;10.30;;;4.63;;
69334;SDS011;56477;52.742;15.242;2023-11-21T07:56:06;12.98;;;4.43;;
69334;SDS011;56477;52.742;15.242;2023-11-21T07:58:36;12.52;;;4.60;;
69334;SDS011;56477;52.742;15.242;2023-11-21T08:01:02;11.00;;;4.50;;
69334;SDS011;56477;52.742;15.242;2023-11-21T08:03:29;11.20;;;4.20;;
69334;SDS011;56477;52.742;15.242;2023-11-21T08:05:57;12.18;;;4.53;;
69334;SDS011;56477;52.742;15.242;2023-11-21T08:08:24;11.65;;;3.90;;
69334;SDS011;56477;52.742;15.242;2023-11-21T08:10:50;10.55;;;4.10;;
69334;SDS011;56477;52.742;15.242;2023-11-21T08:13:23;11.60;;;3.73;;
69334;SDS011;56477;52.742;15.242;2023-11-21T08:15:50;8.35;;;3.25;;
69334;SDS011;56477;52.742;15.242;2023-11-21T08:18:16;11.20;;;4.07;;
69334;SDS011;56477;52.742;15.242;2023-11-21T08:20:43;7.90;;;3.45;;
69334;SDS011;56477;52.742;15.242;2023-11-21T08:23:16;8.10;;;3.42;;
69334;SDS011;56477;52.742;15.242;2023-11-21T08:25:45;8.97;;;2.73;;
69334;SDS011;56477;52.742;15.242;2023-11-21T08:28:12;9.00;;;3.90;;
69334;SDS011;56477;52.742;15.242;2023-11-21T08:30:41;9.30;;;3.88;;
69334;SDS011;56477;52.742;15.242;2023-11-21T08:33:08;11.05;;;3.65;;
69334;SDS011;56477;52.742;15.242;2023-11-21T08:35:34;9.50;;;2.85;;
69334;SDS011;56477;52.742;15.242;2023-11-21T08:38:02;6.33;;;2.73;;
69334;SDS011;56477;52.742;15.242;2023-11-21T08:40:28;7.82;;;2.67;;
69334;SDS011;56477;52.742;15.242;2023-11-21T08:42:55;7.93;;;2.95;;
69334;SDS011;56477;52.742;15.242;2023-11-21T08:45:24;5.55;;;2.10;;
69334;SDS011;56477;52.742;15.242;2023-11-21T08:47:51;7.00;;;2.97;;
69334;SDS011;56477;52.742;15.242;2023-11-21T08:50:17;7.60;;;3.07;;
69334;SDS011;56477;52.742;15.242;2023-11-21T08:52:45;7.57;;;3.40;;
69334;SDS011;56477;52.742;15.242;2023-11-21T08:55:14;5.68;;;1.90;;
69334;SDS011;56477;52.742;15.242;2023-11-21T08:57:41;6.65;;;3.20;;
69334;SDS011;56477;52.742;15.242;2023-11-21T09:00:10;7.18;;;3.40;;
69334;SDS011;56477;52.742;15.242;2023-11-21T09:02:40;5.80;;;2.70;;
69334;SDS011;56477;52.742;15.242;2023-11-21T09:05:12;5.63;;;2.22;;
69334;SDS011;56477;52.742;15.242;2023-11-21T09:07:40;5.28;;;2.30;;
69334;SDS011;56477;52.742;15.242;2023-11-21T09:10:07;4.93;;;2.08;;
69334;SDS011;56477;52.742;15.242;2023-11-21T09:12:36;4.15;;;2.03;;
69334;SDS011;56477;52.742;15.242;2023-11-21T09:15:04;4.67;;;1.70;;
69334;SDS011;56477;52.742;15.242;2023-11-21T09:17:34;4.60;;;2.08;;
69334;SDS011;56477;52.742;15.242;2023-11-21T09:20:00;4.63;;;1.80;;
69334;SDS011;56477;52.742;15.242;2023-11-21T09:22:26;5.90;;;2.00;;
69334;SDS011;56477;52.742;15.242;2023-11-21T09:24:55;5.32;;;2.08;;
69334;SDS011;56477;52.742;15.242;2023-11-21T09:27:23;4.93;;;2.00;;
69334;SDS011;56477;52.742;15.242;2023-11-21T09:29:51;4.68;;;2.17;;
69334;SDS011;56477;52.742;15.242;2023-11-21T09:32:19;5.55;;;1.88;;
69334;SDS011;56477;52.742;15.242;2023-11-21T09:34:47;5.05;;;2.08;;
69334;SDS011;56477;52.742;15.242;2023-11-21T09:37:16;5.55;;;1.95;;
69334;SDS011;56477;52.742;15.242;2023-11-21T09:39:42;5.83;;;2.00;;
69334;SDS011;56477;52.742;15.242;2023-11-21T09:42:25;5.55;;;1.65;;
69334;SDS011;56477;52.742;15.242;2023-11-21T09:47:59;5.82;;;2.00;;
69334;SDS011;56477;52.742;15.242;2023-11-21T09:50:27;4.57;;;1.98;;
69334;SDS011;56477;52.742;15.242;2023-11-21T09:52:55;4.77;;;1.90;;
69334;SDS011;56477;52.742;15.242;2023-11-21T09:55:26;4.55;;;1.80;;
69334;SDS011;56477;52.742;15.242;2023-11-21T09:58:02;7.43;;;2.72;;
69334;SDS011;56477;52.742;15.242;2023-11-21T10:00:30;5.60;;;2.38;;
69334;SDS011;56477;52.742;15.242;2023-11-21T10:02:59;6.82;;;2.72;;
69334;SDS011;56477;52.742;15.242;2023-11-21T10:05:25;6.17;;;1.90;;
69334;SDS011;56477;52.742;15.242;2023-11-21T10:07:52;6.97;;;3.13;;
69334;SDS011;56477;52.742;15.242;2023-11-21T10:10:22;8.05;;;3.03;;
69334;SDS011;56477;52.742;15.242;2023-11-21T10:12:51;6.05;;;2.50;;
69334;SDS011;56477;52.742;15.242;2023-11-21T10:15:25;7.82;;;3.60;;
69334;SDS011;56477;52.742;15.242;2023-11-21T10:17:52;8.40;;;3.33;;
69334;SDS011;56477;52.742;15.242;2023-11-21T10:20:20;9.43;;;3.85;;
69334;SDS011;56477;52.742;15.242;2023-11-21T10:22:48;9.70;;;3.63;;
69334;SDS011;56477;52.742;15.242;2023-11-21T10:25:14;9.30;;;3.85;;
69334;SDS011;56477;52.742;15.242;2023-11-21T10:27:41;9.83;;;3.80;;
69334;SDS011;56477;52.742;15.242;2023-11-21T10:30:09;11.60;;;4.20;;
69334;SDS011;56477;52.742;15.242;2023-11-21T10:32:39;7.95;;;3.80;;
69334;SDS011;56477;52.742;15.242;2023-11-21T10:35:06;11.32;;;4.18;;
69334;SDS011;56477;52.742;15.242;2023-11-21T10:37:39;13.00;;;5.35;;
69334;SDS011;56477;52.742;15.242;2023-11-21T10:40:08;14.07;;;4.60;;
69334;SDS011;56477;52.742;15.242;2023-11-21T10:42:38;13.05;;;5.13;;
69334;SDS011;56477;52.742;15.242;2023-11-21T10:45:05;11.50;;;5.20;;
69334;SDS011;56477;52.742;15.242;2023-11-21T10:47:43;12.02;;;4.97;;
69334;SDS011;56477;52.742;15.242;2023-11-21T10:50:09;12.82;;;5.53;;
69334;SDS011;56477;52.742;15.242;2023-11-21T10:52:37;13.67;;;5.43;;
69334;SDS011;56477;52.742;15.242;2023-11-21T10:55:17;11.15;;;5.15;;
69334;SDS011;56477;52.742;15.242;2023-11-21T10:57:48;10.43;;;5.03;;
69334;SDS011;56477;52.742;15.242;2023-11-21T11:00:16;11.07;;;4.72;;
69334;SDS011;56477;52.742;15.242;2023-11-21T11:02:52;13.98;;;4.78;;
69334;SDS011;56477;52.742;15.242;2023-11-21T11:05:20;14.03;;;5.43;;
69334;SDS011;56477;52.742;15.242;2023-11-21T11:07:59;16.17;;;5.30;;
69334;SDS011;56477;52.742;15.242;2023-11-21T11:10:28;12.63;;;4.95;;
69334;SDS011;56477;52.742;15.242;2023-11-21T11:12:58;13.73;;;5.25;;
69334;SDS011;56477;52.742;15.242;2023-11-21T11:15:25;11.95;;;4.97;;
69334;SDS011;56477;52.742;15.242;2023-11-21T11:17:52;11.43;;;4.30;;
69334;SDS011;56477;52.742;15.242;2023-11-21T11:20:23;10.35;;;4.15;;
69334;SDS011;56477;52.742;15.242;2023-11-21T11:34:15;11.15;;;4.57;;
69334;SDS011;56477;52.742;15.242;2023-11-21T11:37:06;10.20;;;4.40;;
69334;SDS011;56477;52.742;15.242;2023-11-21T11:39:38;12.52;;;4.47;;
69334;SDS011;56477;52.742;15.242;2023-11-21T11:42:17;10.30;;;4.47;;
69334;SDS011;56477;52.742;15.242;2023-11-21T11:47:26;10.32;;;3.33;;
69334;SDS011;56477;52.742;15.242;2023-11-21T11:50:05;11.80;;;3.67;;
69334;SDS011;56477;52.742;15.242;2023-11-21T11:52:37;9.80;;;3.80;;
69334;SDS011;56477;52.742;15.242;2023-11-21T11:55:08;12.15;;;4.82;;
69334;SDS011;56477;52.742;15.242;2023-11-21T11:57:39;10.80;;;4.73;;
69334;SDS011;56477;52.742;15.242;2023-11-21T12:02:47;14.88;;;5.43;;
69334;SDS011;56477;52.742;15.242;2023-11-21T12:05:15;9.35;;;3.53;;
69334;SDS011;56477;52.742;15.242;2023-11-21T12:10:17;11.60;;;5.30;;
69334;SDS011;56477;52.742;15.242;2023-11-21T12:12:51;14.02;;;5.60;;
69334;SDS011;56477;52.742;15.242;2023-11-21T12:15:19;12.82;;;5.25;;
69334;SDS011;56477;52.742;15.242;2023-11-21T12:17:45;14.45;;;5.30;;
69334;SDS011;56477;52.742;15.242;2023-11-21T12:20:13;16.85;;;6.88;;
69334;SDS011;56477;52.742;15.242;2023-11-21T12:22:52;13.20;;;5.07;;
69334;SDS011;56477;52.742;15.242;2023-11-21T12:25:23;16.85;;;6.88;;
69334;SDS011;56477;52.742;15.242;2023-11-21T12:27:52;15.60;;;6.57;;
69334;SDS011;56477;52.742;15.242;2023-11-21T12:30:20;15.15;;;5.88;;
69334;SDS011;56477;52.742;15.242;2023-11-21T12:32:51;13.55;;;5.65;;
69334;SDS011;56477;52.742;15.242;2023-11-21T12:35:19;15.33;;;6.03;;
69334;SDS011;56477;52.742;15.242;2023-11-21T12:37:47;19.55;;;7.13;;
69334;SDS011;56477;52.742;15.242;2023-11-21T12:40:14;21.52;;;7.40;;
69334;SDS011;56477;52.742;15.242;2023-11-21T12:42:43;16.05;;;7.35;;
69334;SDS011;56477;52.742;15.242;2023-11-21T12:47:43;20.67;;;9.10;;
69334;SDS011;56477;52.742;15.242;2023-11-21T12:50:24;25.10;;;9.43;;
69334;SDS011;56477;52.742;15.242;2023-11-21T12:52:57;26.50;;;9.68;;
69334;SDS011;56477;52.742;15.242;2023-11-21T12:55:24;25.35;;;10.77;;
69334;SDS011;56477;52.742;15.242;2023-11-21T12:57:54;26.77;;;11.10;;
69334;SDS011;56477;52.742;15.242;2023-11-21T13:00:43;24.43;;;10.07;;
69334;SDS011;56477;52.742;15.242;2023-11-21T13:03:12;25.80;;;10.57;;
69334;SDS011;56477;52.742;15.242;2023-11-21T13:05:43;25.98;;;10.68;;
69334;SDS011;56477;52.742;15.242;2023-11-21T13:08:11;25.52;;;10.40;;
69334;SDS011;56477;52.742;15.242;2023-11-21T13:10:42;26.40;;;10.13;;
69334;SDS011;56477;52.742;15.242;2023-11-21T13:13:12;28.97;;;11.43;;
69334;SDS011;56477;52.742;15.242;2023-11-21T13:15:50;25.77;;;11.13;;
69334;SDS011;56477;52.742;15.242;2023-11-21T13:18:20;29.48;;;12.30;;
69334;SDS011;56477;52.742;15.242;2023-11-21T13:20:47;19.88;;;8.32;;
69334;SDS011;56477;52.742;15.242;2023-11-21T13:23:13;30.08;;;10.70;;
69334;SDS011;56477;52.742;15.242;2023-11-21T13:25:42;18.67;;;7.50;;
69334;SDS011;56477;52.742;15.242;2023-11-21T13:28:10;25.95;;;10.60;;
69334;SDS011;56477;52.742;15.242;2023-11-21T13:30:49;27.00;;;8.98;;
69334;SDS011;56477;52.742;15.242;2023-11-21T13:33:18;27.00;;;10.60;;
69334;SDS011;56477;52.742;15.242;2023-11-21T13:35:47;27.27;;;11.43;;
69334;SDS011;56477;52.742;15.242;2023-11-21T13:38:15;31.77;;;11.00;;
69334;SDS011;56477;52.742;15.242;2023-11-21T13:40:46;27.92;;;10.95;;
69334;SDS011;56477;52.742;15.242;2023-11-21T13:43:17;29.25;;;11.60;;
69334;SDS011;56477;52.742;15.242;2023-11-21T13:45:46;27.77;;;10.82;;
69334;SDS011;56477;52.742;15.242;2023-11-21T13:48:15;30.35;;;10.00;;
69334;SDS011;56477;52.742;15.242;2023-11-21T13:50:51;26.00;;;10.33;;
69334;SDS011;56477;52.742;15.242;2023-11-21T13:53:35;30.33;;;11.23;;
69334;SDS011;56477;52.742;15.242;2023-11-21T13:56:04;27.25;;;10.90;;
69334;SDS011;56477;52.742;15.242;2023-11-21T13:58:30;25.17;;;9.43;;
69334;SDS011;56477;52.742;15.242;2023-11-21T14:01:26;30.95;;;12.63;;
69334;SDS011;56477;52.742;15.242;2023-11-21T14:03:55;28.40;;;11.53;;
69334;SDS011;56477;52.742;15.242;2023-11-21T14:06:49;27.15;;;10.70;;
69334;SDS011;56477;52.742;15.242;2023-11-21T14:09:16;27.90;;;11.55;;
69334;SDS011;56477;52.742;15.242;2023-11-21T14:11:58;25.98;;;10.77;;
69334;SDS011;56477;52.742;15.242;2023-11-21T14:14:26;33.63;;;10.80;;
69334;SDS011;56477;52.742;15.242;2023-11-21T14:16:55;28.10;;;11.40;;
69334;SDS011;56477;52.742;15.242;2023-11-21T14:19:25;27.30;;;7.78;;
69334;SDS011;56477;52.742;15.242;2023-11-21T14:21:58;30.25;;;11.30;;
69334;SDS011;56477;52.742;15.242;2023-11-21T14:24:23;29.33;;;10.93;;
69334;SDS011;56477;52.742;15.242;2023-11-21T14:26:51;29.20;;;10.70;;
69334;SDS011;56477;52.742;15.242;2023-11-21T14:29:17;25.20;;;10.63;;
69334;SDS011;56477;52.742;15.242;2023-11-21T14:31:49;23.60;;;10.68;;
69334;SDS011;56477;52.742;15.242;2023-11-21T14:34:21;22.60;;;8.70;;
69334;SDS011;56477;52.742;15.242;2023-11-21T14:36:48;25.38;;;9.45;;
69334;SDS011;56477;52.742;15.242;2023-11-21T14:39:14;22.13;;;9.37;;
69334;SDS011;56477;52.742;15.242;2023-11-21T14:41:53;19.35;;;8.07;;
69334;SDS011;56477;52.742;15.242;2023-11-21T14:44:24;13.95;;;6.35;;
69334;SDS011;56477;52.742;15.242;2023-11-21T14:46:54;19.90;;;7.03;;
69334;SDS011;56477;52.742;15.242;2023-11-21T14:49:22;22.98;;;8.18;;
69334;SDS011;56477;52.742;15.242;2023-11-21T14:51:51;17.63;;;6.60;;